createdAt,value
2022-11-12T00:01:04.053Z,8.20
2022-11-12T00:03:33.626Z,5.60
2022-11-12T00:06:01.791Z,7.00
2022-11-12T00:08:30.495Z,6.00
2022-11-12T00:10:58.870Z,5.60
2022-11-12T00:13:27.111Z,4.80
2022-11-12T00:15:55.611Z,4.80
2022-11-12T00:18:24.051Z,6.20
2022-11-12T00:20:53.890Z,5.20
2022-11-12T00:23:22.090Z,6.00
2022-11-12T00:25:51.396Z,3.00
2022-11-12T00:28:19.572Z,4.00
2022-11-12T00:30:47.775Z,3.00
2022-11-12T00:33:15.962Z,5.60
2022-11-12T00:35:44.171Z,6.00
2022-11-12T00:38:13.763Z,4.00
2022-11-12T00:40:42.981Z,6.00
2022-11-12T00:43:11.194Z,4.80
2022-11-12T00:45:39.414Z,3.00
2022-11-12T00:48:07.831Z,2.20
2022-11-12T00:50:36.014Z,4.80
2022-11-12T00:53:04.277Z,4.00
2022-11-12T00:55:34.126Z,5.20
2022-11-12T00:58:02.344Z,3.20
2022-11-12T01:00:30.569Z,4.80
2022-11-12T01:02:58.803Z,4.00
2022-11-12T01:08:13.346Z,1.00
2022-11-12T01:10:42.939Z,4.00
2022-11-12T01:13:11.420Z,4.80
2022-11-12T01:18:28.318Z,3.00
2022-11-12T01:20:57.556Z,4.00
2022-11-12T01:23:25.772Z,5.80
2022-11-12T01:25:55.355Z,3.00
2022-11-12T01:28:23.701Z,4.80
2022-11-12T01:30:52.032Z,5.20
2022-11-12T01:33:20.671Z,5.20
2022-11-12T01:35:48.886Z,4.80
2022-11-12T01:38:17.094Z,3.60
2022-11-12T01:40:45.280Z,3.80
2022-11-12T01:43:16.582Z,3.60
2022-11-12T01:45:46.010Z,6.00
2022-11-12T01:48:15.027Z,4.80
2022-11-12T01:50:44.842Z,5.60
2022-11-12T01:53:13.117Z,5.60
2022-11-12T01:55:41.309Z,3.00
2022-11-12T01:58:10.955Z,3.00
2022-11-12T02:00:40.564Z,4.00
2022-11-12T02:03:12.290Z,3.80
2022-11-12T02:05:40.551Z,4.40
2022-11-12T02:08:11.201Z,4.00
2022-11-12T02:10:39.934Z,1.80
2022-11-12T02:13:22.207Z,1.00
2022-11-12T02:15:51.787Z,3.00
2022-11-12T02:18:19.972Z,2.60
2022-11-12T02:20:54.924Z,4.00
2022-11-12T02:23:24.500Z,3.00
2022-11-12T02:25:56.137Z,2.60
2022-11-12T02:28:28.653Z,3.00
2022-11-12T02:30:57.398Z,3.80
2022-11-12T02:33:25.596Z,3.80
2022-11-12T02:35:54.089Z,2.60
2022-11-12T02:38:22.327Z,4.00
2022-11-12T02:40:52.039Z,3.00
2022-11-12T02:43:20.289Z,1.80
2022-11-12T02:45:48.749Z,3.00
2022-11-12T02:48:19.331Z,1.00
2022-11-12T02:50:48.818Z,3.20
2022-11-12T02:53:17.371Z,3.00
2022-11-12T02:55:45.602Z,2.80
2022-11-12T02:58:15.169Z,3.00
2022-11-12T03:00:43.726Z,1.40
2022-11-12T03:03:11.956Z,3.40
2022-11-12T03:05:40.163Z,2.20
2022-11-12T03:08:09.483Z,1.00
2022-11-12T03:10:38.505Z,1.00
2022-11-12T03:13:06.780Z,2.20
2022-11-12T03:15:36.339Z,3.00
2022-11-12T03:18:04.933Z,1.00
2022-11-12T03:20:34.906Z,1.40
2022-11-12T03:23:05.465Z,1.80
2022-11-12T03:25:33.677Z,3.00
2022-11-12T03:28:02.876Z,1.00
2022-11-12T03:30:32.031Z,1.00
2022-11-12T03:33:01.591Z,2.20
2022-11-12T03:35:30.088Z,1.80
2022-11-12T03:37:58.797Z,3.00
2022-11-12T03:40:27.039Z,1.00
2022-11-12T03:42:55.256Z,3.00
2022-11-12T03:45:24.761Z,3.00
2022-11-12T03:47:54.073Z,1.00
2022-11-12T03:50:24.379Z,2.60
2022-11-12T03:52:53.310Z,1.00
2022-11-12T03:55:22.689Z,3.00
2022-11-12T03:57:51.215Z,3.40
2022-11-12T04:00:19.915Z,2.60
2022-11-12T04:02:48.155Z,3.00
2022-11-12T04:05:30.424Z,3.00
2022-11-12T04:08:14.532Z,1.00
2022-11-12T04:10:42.721Z,1.00
2022-11-12T04:13:24.721Z,1.00
2022-11-12T04:16:13.571Z,2.20
2022-11-12T04:18:55.638Z,1.00
2022-11-12T04:21:45.720Z,1.00
2022-11-12T04:24:35.343Z,0.00
2022-11-12T04:27:03.570Z,3.00
2022-11-12T04:29:45.876Z,3.00
2022-11-12T04:32:14.076Z,0.00
2022-11-12T04:34:42.320Z,2.60
2022-11-12T04:37:10.550Z,1.00
2022-11-12T04:39:40.210Z,1.80
2022-11-12T04:42:24.022Z,0.60
2022-11-12T04:45:01.539Z,1.00
2022-11-12T04:47:31.904Z,0.60
2022-11-12T04:50:00.124Z,1.00
2022-11-12T04:52:28.531Z,1.40
2022-11-12T04:54:58.527Z,1.00
2022-11-12T04:57:26.990Z,1.00
2022-11-12T04:59:55.292Z,2.60
2022-11-12T05:02:23.604Z,3.40
2022-11-12T05:04:52.082Z,1.80
2022-11-12T05:07:20.319Z,3.00
2022-11-12T05:09:48.561Z,0.00
2022-11-12T05:12:18.145Z,1.00
2022-11-12T05:14:46.358Z,3.00
2022-11-12T05:17:15.989Z,2.20
2022-11-12T05:19:46.669Z,1.40
2022-11-12T05:22:40.211Z,1.00
2022-11-12T05:25:03.136Z,3.80
2022-11-12T05:27:32.731Z,1.00
2022-11-12T05:30:00.994Z,1.00
2022-11-12T05:32:29.176Z,1.00
2022-11-12T05:34:57.380Z,1.40
2022-11-12T05:37:25.562Z,1.80
2022-11-12T05:39:54.049Z,2.20
2022-11-12T05:42:22.239Z,1.00
2022-11-12T05:44:51.827Z,1.00
2022-11-12T05:47:20.300Z,0.40
2022-11-12T05:49:48.508Z,1.00
2022-11-12T05:52:16.731Z,1.40
2022-11-12T05:54:44.934Z,1.40
2022-11-12T05:57:13.426Z,1.40
2022-11-12T05:59:41.635Z,1.00
2022-11-12T06:02:11.269Z,3.00
2022-11-12T06:04:39.540Z,6.00
2022-11-12T06:07:07.820Z,2.20
2022-11-12T06:09:36.076Z,7.40
2022-11-12T06:12:06.932Z,7.00
2022-11-12T06:14:35.179Z,5.60
2022-11-12T06:17:03.444Z,7.60
2022-11-12T06:19:33.063Z,13.20
2022-11-12T06:22:01.563Z,7.80
2022-11-12T06:24:34.996Z,10.80
2022-11-12T06:27:03.855Z,8.00
2022-11-12T06:29:32.343Z,5.20
2022-11-12T06:32:00.553Z,7.00
2022-11-12T06:34:28.768Z,10.20
2022-11-12T06:36:58.636Z,10.60
2022-11-12T06:39:26.863Z,12.20
2022-11-12T06:41:55.081Z,7.60
2022-11-12T06:44:23.338Z,7.80
2022-11-12T06:46:51.873Z,14.80
2022-11-12T06:49:20.098Z,6.60
2022-11-12T06:51:48.286Z,13.40
2022-11-12T06:54:17.916Z,7.20
2022-11-12T06:56:46.140Z,15.40
2022-11-12T06:59:14.368Z,8.20
2022-11-12T07:01:42.630Z,16.20
2022-11-12T07:04:11.036Z,10.60
2022-11-12T07:06:39.323Z,13.00
2022-11-12T07:09:07.583Z,12.00
2022-11-12T07:11:37.321Z,9.00
2022-11-12T07:14:06.951Z,8.60
2022-11-12T07:16:35.195Z,8.60
2022-11-12T07:19:03.438Z,7.40
2022-11-12T07:21:33.301Z,14.60
2022-11-12T07:24:01.492Z,7.80
2022-11-12T07:26:29.722Z,16.80
2022-11-12T07:28:59.591Z,17.80
2022-11-12T07:31:27.794Z,9.00
2022-11-12T07:33:56.019Z,18.20
2022-11-12T07:36:24.208Z,9.00
2022-11-12T07:38:53.167Z,9.80
2022-11-12T07:41:22.058Z,10.20
2022-11-12T07:43:51.069Z,12.00
2022-11-12T07:46:23.137Z,10.80
2022-11-12T07:48:54.758Z,18.00
2022-11-12T07:51:26.531Z,12.00
2022-11-12T07:53:59.252Z,18.60
2022-11-12T07:56:28.052Z,10.40
2022-11-12T07:58:56.409Z,2.40
2022-11-12T08:01:32.043Z,3.40
2022-11-12T08:04:00.371Z,1.80
2022-11-12T08:06:30.918Z,0.00
2022-11-12T08:09:02.556Z,0.00
2022-11-12T08:11:30.844Z,0.00
2022-11-12T08:13:59.062Z,0.00
2022-11-12T08:16:28.653Z,0.20
2022-11-12T08:18:57.151Z,0.00
2022-11-12T08:21:25.397Z,0.60
2022-11-12T08:23:53.671Z,0.00
2022-11-12T08:26:22.089Z,0.80
2022-11-12T08:28:50.373Z,0.00
2022-11-12T08:31:19.386Z,0.00
2022-11-12T08:33:48.973Z,0.00
2022-11-12T08:36:17.941Z,0.20
2022-11-12T08:38:46.801Z,0.20
2022-11-12T08:41:16.491Z,0.20
2022-11-12T08:43:44.763Z,1.00
2022-11-12T08:46:12.996Z,0.00
2022-11-12T08:48:41.317Z,0.00
2022-11-12T08:51:11.752Z,1.00
2022-11-12T08:53:39.937Z,0.00
2022-11-12T08:56:08.586Z,0.00
2022-11-12T08:58:36.797Z,1.00
2022-11-12T09:01:06.152Z,0.00
2022-11-12T09:03:34.626Z,0.00
2022-11-12T09:06:04.235Z,0.00
2022-11-12T09:08:34.722Z,0.00
2022-11-12T09:11:04.026Z,0.00
2022-11-12T09:13:33.750Z,0.00
2022-11-12T09:16:03.799Z,0.00
2022-11-12T09:18:32.522Z,1.00
2022-11-12T09:21:02.213Z,0.60
2022-11-12T09:23:30.478Z,0.00
2022-11-12T09:26:00.127Z,0.00
2022-11-12T09:28:28.569Z,0.00
2022-11-12T09:30:57.069Z,0.00
2022-11-12T09:33:26.170Z,0.00
2022-11-12T09:35:54.772Z,0.00
2022-11-12T09:38:23.559Z,0.20
2022-11-12T09:41:05.027Z,0.00
2022-11-12T09:43:34.059Z,1.40
2022-11-12T09:46:26.739Z,0.00
2022-11-12T09:49:08.153Z,0.40
2022-11-12T09:52:03.029Z,1.00
2022-11-12T09:54:33.227Z,0.00
2022-11-12T09:57:02.991Z,1.00
2022-11-12T09:59:32.985Z,0.00
2022-11-12T10:02:08.870Z,0.80
2022-11-12T10:04:49.032Z,0.00
2022-11-12T10:07:22.166Z,0.00
2022-11-12T10:09:56.429Z,0.00
2022-11-12T10:12:33.810Z,1.00
2022-11-12T10:15:35.369Z,0.00
2022-11-12T10:18:06.362Z,0.00
2022-11-12T10:20:38.903Z,0.00
2022-11-12T10:23:21.568Z,0.25
2022-11-12T10:25:56.889Z,1.00
2022-11-12T10:28:34.341Z,0.00
2022-11-12T10:31:10.636Z,0.00
2022-11-12T10:33:38.936Z,1.00
2022-11-12T10:36:20.200Z,0.75
2022-11-12T10:38:50.178Z,1.00
2022-11-12T10:41:20.906Z,2.50
2022-11-12T10:43:57.102Z,1.00
2022-11-12T10:46:26.216Z,0.75
2022-11-12T10:48:57.500Z,0.25
2022-11-12T10:51:28.129Z,1.00
2022-11-12T10:53:56.400Z,1.00
2022-11-12T10:56:29.440Z,3.00
2022-11-12T10:59:12.639Z,3.00
2022-11-12T11:01:45.548Z,3.25
2022-11-12T11:04:18.826Z,3.75
2022-11-12T11:06:47.076Z,4.00
2022-11-12T11:09:17.894Z,5.00
2022-11-12T11:11:51.810Z,6.00
2022-11-12T11:14:29.534Z,4.50
2022-11-12T11:16:59.536Z,4.00
2022-11-12T11:19:34.681Z,3.25
2022-11-12T11:22:08.406Z,6.00
2022-11-12T11:24:38.417Z,5.50
2022-11-12T11:27:10.199Z,6.00
2022-11-12T11:29:47.146Z,4.00
2022-11-12T11:32:55.854Z,6.50
2022-11-12T11:35:30.715Z,4.00
2022-11-12T11:38:10.323Z,4.00
2022-11-12T11:40:41.432Z,3.00
2022-11-12T11:43:24.948Z,1.50
2022-11-12T11:46:04.983Z,3.75
2022-11-12T11:48:39.932Z,3.75
2022-11-12T11:51:11.674Z,3.00
2022-11-12T11:53:42.472Z,1.50
2022-11-12T11:56:12.725Z,3.00
2022-11-12T11:58:55.588Z,4.00
2022-11-12T12:01:27.806Z,3.00
2022-11-12T12:04:05.197Z,3.00
2022-11-12T12:06:34.225Z,3.00
2022-11-12T12:09:09.075Z,3.25
2022-11-12T12:11:40.568Z,3.25
2022-11-12T12:14:19.822Z,2.00
2022-11-12T12:16:54.803Z,1.00
2022-11-12T12:19:29.624Z,1.00
2022-11-12T12:21:57.858Z,1.00
2022-11-12T12:24:28.583Z,0.00
2022-11-12T12:27:00.660Z,0.25
2022-11-12T12:29:31.883Z,0.50
2022-11-12T12:32:04.064Z,1.50
2022-11-12T12:34:33.414Z,1.00
2022-11-12T12:37:05.197Z,1.00
2022-11-12T12:39:43.581Z,1.00
2022-11-12T12:42:18.577Z,1.00
2022-11-12T12:45:01.631Z,3.00
2022-11-12T12:47:35.281Z,3.00
2022-11-12T12:50:05.143Z,3.00
2022-11-12T12:52:51.904Z,3.00
2022-11-12T12:55:36.033Z,1.00
2022-11-12T12:58:04.291Z,1.00
2022-11-12T13:00:39.916Z,3.25
2022-11-12T13:03:11.184Z,2.00
2022-11-12T13:05:41.076Z,3.25
2022-11-12T13:08:10.769Z,36.00
2022-11-12T13:10:49.120Z,3.00
2022-11-12T13:13:33.313Z,3.00
2022-11-12T13:16:02.597Z,0.50
2022-11-12T13:19:00.263Z,1.00
2022-11-12T13:21:29.029Z,1.00
2022-11-12T13:24:08.892Z,1.00
2022-11-12T13:26:53.922Z,1.00
2022-11-12T13:29:25.749Z,1.00
2022-11-12T13:32:23.462Z,3.00
2022-11-12T13:34:53.400Z,1.00
2022-11-12T13:37:22.984Z,1.00
2022-11-12T13:39:51.544Z,4.00
2022-11-12T13:42:33.632Z,3.25
2022-11-12T13:45:02.202Z,1.00
2022-11-12T13:47:30.455Z,1.00
2022-11-12T13:50:00.934Z,4.00
2022-11-12T13:52:29.263Z,3.25
2022-11-12T13:55:05.508Z,2.50
2022-11-12T13:57:33.885Z,1.00
2022-11-12T14:00:12.214Z,3.00
2022-11-12T14:02:41.591Z,3.00
2022-11-12T14:05:16.669Z,0.75
2022-11-12T14:07:48.527Z,3.00
2022-11-12T14:10:22.782Z,3.00
2022-11-12T14:13:00.444Z,3.50
2022-11-12T14:15:42.420Z,1.00
2022-11-12T14:18:13.966Z,4.00
2022-11-12T14:20:43.569Z,9.00
2022-11-12T14:23:13.391Z,3.50
2022-11-12T14:25:48.369Z,4.00
2022-11-12T14:28:28.311Z,3.25
2022-11-12T14:31:00.987Z,6.00
2022-11-12T14:33:33.921Z,8.00
2022-11-12T14:36:04.726Z,3.00
2022-11-12T14:38:34.169Z,5.00
2022-11-12T14:41:03.550Z,4.00
2022-11-12T14:43:34.085Z,3.50
2022-11-12T14:46:10.090Z,1.00
2022-11-12T14:48:46.812Z,3.75
2022-11-12T14:51:16.515Z,3.50
2022-11-12T14:53:46.469Z,3.50
2022-11-12T14:56:20.352Z,6.00
2022-11-12T14:58:48.616Z,3.75
2022-11-12T15:02:03.999Z,6.25
2022-11-12T15:04:19.246Z,6.25
2022-11-12T15:06:55.031Z,3.00
2022-11-12T15:09:34.390Z,5.00
2022-11-12T15:12:05.229Z,8.50
2022-11-12T15:15:04.134Z,3.00
2022-11-12T15:17:35.980Z,6.00
2022-11-12T15:20:23.206Z,5.00
2022-11-12T15:22:52.802Z,7.00
2022-11-12T15:25:23.151Z,7.50
2022-11-12T15:27:51.601Z,6.25
2022-11-12T15:30:23.758Z,9.20
2022-11-12T15:32:52.140Z,7.00
2022-11-12T15:35:22.893Z,9.00
2022-11-12T15:37:53.143Z,6.25
2022-11-12T15:40:25.423Z,6.00
2022-11-12T15:42:53.849Z,6.00
2022-11-12T15:45:22.647Z,6.50
2022-11-12T15:47:51.132Z,6.20
2022-11-12T15:50:20.237Z,4.00
2022-11-12T15:52:50.812Z,6.50
2022-11-12T15:55:20.394Z,5.80
2022-11-12T15:57:50.194Z,7.00
2022-11-12T16:00:19.754Z,6.00
2022-11-12T16:02:48.408Z,6.25
2022-11-12T16:05:17.082Z,5.60
2022-11-12T16:07:45.365Z,6.00
2022-11-12T16:10:14.592Z,6.00
2022-11-12T16:13:02.583Z,8.60
2022-11-12T16:15:30.887Z,10.80
2022-11-12T16:18:00.312Z,7.80
2022-11-12T16:20:29.544Z,9.20
2022-11-12T16:22:57.729Z,11.20
2022-11-12T16:25:26.450Z,6.80
2022-11-12T16:27:56.626Z,9.80
2022-11-12T16:30:25.918Z,9.80
2022-11-12T16:33:02.744Z,9.20
2022-11-12T16:35:31.239Z,7.00
2022-11-12T16:37:59.547Z,6.00
2022-11-12T16:40:29.693Z,8.20
2022-11-12T16:42:59.692Z,8.20
2022-11-12T16:45:33.940Z,7.80
2022-11-12T16:48:02.183Z,9.00
2022-11-12T16:50:30.493Z,4.00
2022-11-12T16:52:59.094Z,8.20
2022-11-12T16:55:27.308Z,9.00
2022-11-12T16:57:55.544Z,9.00
2022-11-12T17:00:25.302Z,9.20
2022-11-12T17:02:54.995Z,9.80
2022-11-12T17:05:26.716Z,9.40
2022-11-12T17:07:56.885Z,9.40
2022-11-12T17:10:25.594Z,9.00
2022-11-12T17:12:54.085Z,8.20
2022-11-12T17:15:22.388Z,10.00
2022-11-12T17:17:54.217Z,9.00
2022-11-12T17:20:22.473Z,14.20
2022-11-12T17:22:50.654Z,10.00
2022-11-12T17:25:18.984Z,10.40
2022-11-12T17:27:47.468Z,9.00
2022-11-12T17:30:15.852Z,9.60
2022-11-12T17:32:44.067Z,12.00
2022-11-12T17:35:13.661Z,9.20
2022-11-12T17:37:42.122Z,4.40
2022-11-12T17:40:11.080Z,9.40
2022-11-12T17:42:39.273Z,5.20
2022-11-12T17:45:08.582Z,6.60
2022-11-12T17:47:40.583Z,5.20
2022-11-12T17:50:12.152Z,3.80
2022-11-12T17:52:48.357Z,3.20
2022-11-12T17:55:16.743Z,5.20
2022-11-12T17:57:44.966Z,3.80
2022-11-12T18:00:14.279Z,4.00
2022-11-12T18:02:42.505Z,3.60
2022-11-12T18:05:11.134Z,3.60
2022-11-12T18:07:39.325Z,3.80
2022-11-12T18:10:09.298Z,0.80
2022-11-12T18:12:37.570Z,4.00
2022-11-12T18:15:06.305Z,1.80
2022-11-12T18:17:34.867Z,3.20
2022-11-12T18:20:04.124Z,3.00
2022-11-12T18:22:32.347Z,4.00
2022-11-12T18:25:00.583Z,3.20
2022-11-12T18:27:30.167Z,1.80
2022-11-12T18:29:58.530Z,3.00
2022-11-12T18:32:27.036Z,6.00
2022-11-12T18:34:55.587Z,3.20
2022-11-12T18:37:24.134Z,4.00
2022-11-12T18:39:52.526Z,3.20
2022-11-12T18:42:20.798Z,5.20
2022-11-12T18:44:50.382Z,3.20
2022-11-12T18:47:18.571Z,4.00
2022-11-12T18:49:46.782Z,6.00
2022-11-12T18:52:15.062Z,6.00
2022-11-12T18:54:43.250Z,3.00
2022-11-12T18:57:11.460Z,3.00
2022-11-12T18:59:39.730Z,6.40
2022-11-12T19:02:11.265Z,3.80
2022-11-12T19:04:45.052Z,1.00
2022-11-12T19:07:14.070Z,3.20
2022-11-12T19:09:42.425Z,3.80
2022-11-12T19:12:10.953Z,4.00
2022-11-12T19:14:39.159Z,4.00
2022-11-12T19:17:08.754Z,3.00
2022-11-12T19:19:37.114Z,6.00
2022-11-12T19:22:05.400Z,4.00
2022-11-12T19:24:33.708Z,3.00
2022-11-12T19:27:01.980Z,5.60
2022-11-12T19:29:31.139Z,3.00
2022-11-12T19:31:59.463Z,3.40
2022-11-12T19:34:29.961Z,3.00
2022-11-12T19:37:26.626Z,3.00
2022-11-12T19:39:46.807Z,3.40
2022-11-12T19:42:15.191Z,1.00
2022-11-12T19:44:43.413Z,3.40
2022-11-12T19:47:11.893Z,3.80
2022-11-12T19:49:41.503Z,3.00
2022-11-12T19:52:09.927Z,6.00
2022-11-12T19:54:38.295Z,4.00
2022-11-12T19:57:07.067Z,3.80
2022-11-12T19:59:35.347Z,4.80
2022-11-12T20:02:03.552Z,3.80
2022-11-12T20:04:32.106Z,5.20
2022-11-12T20:07:01.833Z,4.00
2022-11-12T20:09:30.247Z,5.60
2022-11-12T20:11:58.464Z,3.00
2022-11-12T20:14:26.660Z,3.20
2022-11-12T20:16:55.159Z,4.40
2022-11-12T20:19:23.475Z,4.00
2022-11-12T20:21:51.675Z,6.00
2022-11-12T20:24:21.259Z,1.40
2022-11-12T20:26:49.465Z,3.80
2022-11-12T20:29:17.952Z,1.00
2022-11-12T20:31:46.234Z,3.00
2022-11-12T20:34:14.457Z,1.00
2022-11-12T20:36:42.921Z,1.40
2022-11-12T20:39:11.135Z,4.00
2022-11-12T20:41:40.978Z,3.00
2022-11-12T20:44:09.293Z,3.00
2022-11-12T20:46:37.803Z,3.00
2022-11-12T20:49:08.662Z,1.00
2022-11-12T20:51:37.200Z,3.00
2022-11-12T20:54:05.491Z,3.00
2022-11-12T20:56:33.712Z,1.00
2022-11-12T20:59:03.371Z,3.00
2022-11-12T21:01:32.270Z,1.00
2022-11-12T21:04:00.585Z,1.80
2022-11-12T21:06:29.578Z,3.00
2022-11-12T21:08:59.874Z,3.00
2022-11-12T21:11:28.398Z,3.00
2022-11-12T21:13:56.593Z,3.20
2022-11-12T21:16:26.174Z,1.00
2022-11-12T21:18:54.365Z,3.00
2022-11-12T21:21:22.578Z,3.00
2022-11-12T21:23:52.100Z,1.00
2022-11-12T21:26:21.043Z,2.60
2022-11-12T21:28:49.995Z,1.00
2022-11-12T21:31:19.066Z,1.00
2022-11-12T21:33:51.464Z,1.80
2022-11-12T21:36:20.375Z,1.00
2022-11-12T21:38:48.940Z,1.00
2022-11-12T21:41:17.980Z,0.00
2022-11-12T21:43:46.298Z,2.20
2022-11-12T21:46:15.904Z,1.00
2022-11-12T21:48:44.150Z,0.60
2022-11-12T21:51:14.861Z,1.00
2022-11-12T21:53:43.598Z,1.00
2022-11-12T21:56:12.553Z,1.00
2022-11-12T21:58:40.743Z,1.40
2022-11-12T22:01:10.252Z,1.00
2022-11-12T22:03:38.836Z,1.00
2022-11-12T22:06:07.445Z,1.00
2022-11-12T22:08:37.030Z,0.80
2022-11-12T22:11:06.292Z,0.00
2022-11-12T22:13:34.594Z,2.60
2022-11-12T22:16:05.881Z,1.00
2022-11-12T22:18:35.328Z,1.00
2022-11-12T22:21:04.447Z,1.00
2022-11-12T22:23:36.061Z,1.00
2022-11-12T22:26:06.046Z,1.00
2022-11-12T22:28:35.129Z,1.00
2022-11-12T22:31:04.924Z,1.00
2022-11-12T22:33:33.108Z,1.00
2022-11-12T22:36:02.908Z,3.00
2022-11-12T22:38:35.900Z,0.00
2022-11-12T22:41:06.877Z,1.00
2022-11-12T22:43:35.069Z,1.00
2022-11-12T22:46:06.205Z,1.00
2022-11-12T22:48:34.510Z,1.00
2022-11-12T22:51:02.797Z,1.00
2022-11-12T22:53:31.462Z,0.00
2022-11-12T22:56:03.355Z,1.40
2022-11-12T22:58:35.740Z,1.00
2022-11-12T23:01:04.372Z,1.00
2022-11-12T23:03:32.649Z,1.80
2022-11-12T23:06:00.986Z,1.00
2022-11-12T23:08:29.691Z,1.00
2022-11-12T23:10:58.260Z,1.00
2022-11-12T23:13:26.969Z,2.20
2022-11-12T23:15:56.556Z,2.60
2022-11-12T23:18:26.365Z,1.00
2022-11-12T23:20:55.822Z,1.00
2022-11-12T23:23:24.149Z,1.00
2022-11-12T23:25:52.358Z,0.00
2022-11-12T23:28:20.611Z,1.00
2022-11-12T23:30:51.322Z,1.00
2022-11-12T23:33:21.916Z,1.00
2022-11-12T23:35:50.143Z,1.00
2022-11-12T23:38:18.549Z,4.00
2022-11-12T23:40:54.093Z,0.80
2022-11-12T23:43:22.680Z,1.00
2022-11-12T23:45:52.137Z,1.00
2022-11-12T23:48:21.738Z,0.00
2022-11-12T23:50:50.769Z,1.00
2022-11-12T23:53:19.216Z,1.00
2022-11-12T23:55:47.447Z,0.00
2022-11-12T23:58:15.659Z,0.20
